sensor_id;sensor_type;location;lat;lon;timestamp;P1;durP1;ratioP1;P2;durP2;ratioP2
19830;SDS011;10076;52.008;4.708;2023-08-30T00:01:49;35.85;;;32.95;;
19830;SDS011;10076;52.008;4.708;2023-08-30T00:04:14;35.95;;;33.15;;
19830;SDS011;10076;52.008;4.708;2023-08-30T00:06:39;37.15;;;34.15;;
19830;SDS011;10076;52.008;4.708;2023-08-30T00:09:05;36.78;;;33.60;;
19830;SDS011;10076;52.008;4.708;2023-08-30T00:11:30;36.10;;;33.20;;
19830;SDS011;10076;52.008;4.708;2023-08-30T00:14:06;36.45;;;33.55;;
19830;SDS011;10076;52.008;4.708;2023-08-30T00:16:32;36.92;;;33.90;;
19830;SDS011;10076;52.008;4.708;2023-08-30T00:18:58;37.17;;;34.08;;
19830;SDS011;10076;52.008;4.708;2023-08-30T00:21:24;36.80;;;33.90;;
19830;SDS011;10076;52.008;4.708;2023-08-30T00:23:50;36.95;;;33.85;;
19830;SDS011;10076;52.008;4.708;2023-08-30T00:26:16;35.72;;;32.67;;
19830;SDS011;10076;52.008;4.708;2023-08-30T00:28:41;37.33;;;34.22;;
19830;SDS011;10076;52.008;4.708;2023-08-30T00:31:06;36.22;;;33.03;;
19830;SDS011;10076;52.008;4.708;2023-08-30T00:33:32;37.55;;;34.15;;
19830;SDS011;10076;52.008;4.708;2023-08-30T00:35:58;37.05;;;33.95;;
19830;SDS011;10076;52.008;4.708;2023-08-30T00:38:25;38.67;;;35.38;;
19830;SDS011;10076;52.008;4.708;2023-08-30T00:40:51;38.03;;;34.83;;
19830;SDS011;10076;52.008;4.708;2023-08-30T00:43:17;37.90;;;34.72;;
19830;SDS011;10076;52.008;4.708;2023-08-30T00:45:43;36.35;;;33.25;;
19830;SDS011;10076;52.008;4.708;2023-08-30T00:48:09;36.33;;;33.25;;
19830;SDS011;10076;52.008;4.708;2023-08-30T00:50:35;37.20;;;34.00;;
19830;SDS011;10076;52.008;4.708;2023-08-30T00:53:01;37.03;;;33.80;;
19830;SDS011;10076;52.008;4.708;2023-08-30T00:55:30;37.00;;;33.88;;
19830;SDS011;10076;52.008;4.708;2023-08-30T00:57:58;36.63;;;33.53;;
19830;SDS011;10076;52.008;4.708;2023-08-30T01:00:24;36.20;;;33.10;;
19830;SDS011;10076;52.008;4.708;2023-08-30T01:02:49;38.22;;;34.95;;
19830;SDS011;10076;52.008;4.708;2023-08-30T01:05:14;38.15;;;34.85;;
19830;SDS011;10076;52.008;4.708;2023-08-30T01:07:41;38.83;;;35.55;;
19830;SDS011;10076;52.008;4.708;2023-08-30T01:10:06;39.20;;;35.90;;
19830;SDS011;10076;52.008;4.708;2023-08-30T01:12:56;37.97;;;34.63;;
19830;SDS011;10076;52.008;4.708;2023-08-30T01:15:22;37.80;;;34.70;;
19830;SDS011;10076;52.008;4.708;2023-08-30T01:17:50;39.70;;;36.28;;
19830;SDS011;10076;52.008;4.708;2023-08-30T01:20:17;38.83;;;35.53;;
19830;SDS011;10076;52.008;4.708;2023-08-30T01:27:58;39.45;;;36.00;;
19830;SDS011;10076;52.008;4.708;2023-08-30T01:30:28;39.22;;;35.72;;
19830;SDS011;10076;52.008;4.708;2023-08-30T01:32:54;40.95;;;37.45;;
19830;SDS011;10076;52.008;4.708;2023-08-30T01:35:21;39.40;;;35.78;;
19830;SDS011;10076;52.008;4.708;2023-08-30T01:37:48;38.90;;;35.50;;
19830;SDS011;10076;52.008;4.708;2023-08-30T01:40:15;38.60;;;35.20;;
19830;SDS011;10076;52.008;4.708;2023-08-30T01:42:42;39.85;;;36.25;;
19830;SDS011;10076;52.008;4.708;2023-08-30T01:45:10;38.22;;;34.60;;
19830;SDS011;10076;52.008;4.708;2023-08-30T01:47:38;38.83;;;35.50;;
19830;SDS011;10076;52.008;4.708;2023-08-30T01:50:06;37.70;;;34.40;;
19830;SDS011;10076;52.008;4.708;2023-08-30T01:52:32;39.58;;;36.05;;
19830;SDS011;10076;52.008;4.708;2023-08-30T01:54:57;39.25;;;35.85;;
19830;SDS011;10076;52.008;4.708;2023-08-30T01:57:23;39.20;;;35.78;;
19830;SDS011;10076;52.008;4.708;2023-08-30T01:59:48;38.65;;;35.35;;
19830;SDS011;10076;52.008;4.708;2023-08-30T02:02:14;39.42;;;36.13;;
19830;SDS011;10076;52.008;4.708;2023-08-30T02:04:39;39.00;;;35.60;;
19830;SDS011;10076;52.008;4.708;2023-08-30T02:07:05;39.25;;;35.55;;
19830;SDS011;10076;52.008;4.708;2023-08-30T02:12:10;39.60;;;36.00;;
19830;SDS011;10076;52.008;4.708;2023-08-30T02:14:39;39.40;;;35.80;;
19830;SDS011;10076;52.008;4.708;2023-08-30T02:17:05;37.88;;;34.58;;
19830;SDS011;10076;52.008;4.708;2023-08-30T02:19:33;39.72;;;36.00;;
19830;SDS011;10076;52.008;4.708;2023-08-30T02:21:59;37.67;;;34.22;;
19830;SDS011;10076;52.008;4.708;2023-08-30T02:24:24;38.25;;;34.95;;
19830;SDS011;10076;52.008;4.708;2023-08-30T02:26:49;38.63;;;35.15;;
19830;SDS011;10076;52.008;4.708;2023-08-30T02:29:15;38.03;;;34.80;;
19830;SDS011;10076;52.008;4.708;2023-08-30T02:31:40;39.15;;;35.85;;
19830;SDS011;10076;52.008;4.708;2023-08-30T02:34:05;39.90;;;36.30;;
19830;SDS011;10076;52.008;4.708;2023-08-30T02:36:31;37.63;;;34.35;;
19830;SDS011;10076;52.008;4.708;2023-08-30T02:38:56;38.28;;;34.88;;
19830;SDS011;10076;52.008;4.708;2023-08-30T02:41:21;39.75;;;36.05;;
19830;SDS011;10076;52.008;4.708;2023-08-30T02:43:47;38.70;;;35.47;;
19830;SDS011;10076;52.008;4.708;2023-08-30T02:46:12;39.58;;;35.97;;
19830;SDS011;10076;52.008;4.708;2023-08-30T02:48:37;40.38;;;36.88;;
19830;SDS011;10076;52.008;4.708;2023-08-30T02:51:03;39.47;;;35.78;;
19830;SDS011;10076;52.008;4.708;2023-08-30T02:53:28;38.75;;;35.40;;
19830;SDS011;10076;52.008;4.708;2023-08-30T02:55:53;41.17;;;37.45;;
19830;SDS011;10076;52.008;4.708;2023-08-30T02:58:20;39.78;;;36.20;;
19830;SDS011;10076;52.008;4.708;2023-08-30T03:00:46;40.05;;;36.70;;
19830;SDS011;10076;52.008;4.708;2023-08-30T03:03:11;40.63;;;37.08;;
19830;SDS011;10076;52.008;4.708;2023-08-30T03:05:37;39.80;;;36.15;;
19830;SDS011;10076;52.008;4.708;2023-08-30T03:08:02;39.53;;;36.10;;
19830;SDS011;10076;52.008;4.708;2023-08-30T03:10:28;39.83;;;36.30;;
19830;SDS011;10076;52.008;4.708;2023-08-30T03:12:53;41.17;;;37.38;;
19830;SDS011;10076;52.008;4.708;2023-08-30T03:15:19;39.88;;;36.35;;
19830;SDS011;10076;52.008;4.708;2023-08-30T03:17:44;41.80;;;38.10;;
19830;SDS011;10076;52.008;4.708;2023-08-30T03:20:09;40.63;;;37.03;;
19830;SDS011;10076;52.008;4.708;2023-08-30T03:22:35;41.33;;;37.83;;
19830;SDS011;10076;52.008;4.708;2023-08-30T03:25:00;40.88;;;37.20;;
19830;SDS011;10076;52.008;4.708;2023-08-30T03:27:28;41.40;;;37.83;;
19830;SDS011;10076;52.008;4.708;2023-08-30T03:29:54;41.58;;;37.83;;
19830;SDS011;10076;52.008;4.708;2023-08-30T03:32:20;41.65;;;37.85;;
19830;SDS011;10076;52.008;4.708;2023-08-30T03:34:46;41.75;;;38.00;;
19830;SDS011;10076;52.008;4.708;2023-08-30T03:37:13;40.60;;;37.15;;
19830;SDS011;10076;52.008;4.708;2023-08-30T03:39:39;41.75;;;38.10;;
19830;SDS011;10076;52.008;4.708;2023-08-30T03:42:05;40.50;;;37.08;;
19830;SDS011;10076;52.008;4.708;2023-08-30T03:44:30;41.10;;;37.33;;
19830;SDS011;10076;52.008;4.708;2023-08-30T03:46:55;40.33;;;36.33;;
19830;SDS011;10076;52.008;4.708;2023-08-30T03:49:21;38.63;;;35.22;;
19830;SDS011;10076;52.008;4.708;2023-08-30T03:51:47;40.05;;;36.53;;
19830;SDS011;10076;52.008;4.708;2023-08-30T03:54:12;39.40;;;35.80;;
19830;SDS011;10076;52.008;4.708;2023-08-30T03:56:41;39.67;;;36.08;;
19830;SDS011;10076;52.008;4.708;2023-08-30T03:59:07;40.50;;;36.78;;
19830;SDS011;10076;52.008;4.708;2023-08-30T04:01:32;40.53;;;37.00;;
19830;SDS011;10076;52.008;4.708;2023-08-30T04:03:58;39.33;;;35.72;;
19830;SDS011;10076;52.008;4.708;2023-08-30T04:06:23;40.47;;;36.95;;
19830;SDS011;10076;52.008;4.708;2023-08-30T04:08:48;40.28;;;36.47;;
19830;SDS011;10076;52.008;4.708;2023-08-30T04:11:14;39.33;;;35.70;;
19830;SDS011;10076;52.008;4.708;2023-08-30T04:13:39;40.80;;;36.70;;
19830;SDS011;10076;52.008;4.708;2023-08-30T04:16:04;40.03;;;36.30;;
19830;SDS011;10076;52.008;4.708;2023-08-30T04:18:30;40.10;;;36.42;;
19830;SDS011;10076;52.008;4.708;2023-08-30T04:20:56;41.63;;;36.97;;
19830;SDS011;10076;52.008;4.708;2023-08-30T04:23:23;41.03;;;37.42;;
19830;SDS011;10076;52.008;4.708;2023-08-30T04:25:48;43.50;;;39.85;;
19830;SDS011;10076;52.008;4.708;2023-08-30T04:28:13;41.75;;;38.05;;
19830;SDS011;10076;52.008;4.708;2023-08-30T04:30:39;40.45;;;36.58;;
19830;SDS011;10076;52.008;4.708;2023-08-30T04:33:04;41.85;;;37.90;;
19830;SDS011;10076;52.008;4.708;2023-08-30T04:35:30;41.22;;;37.33;;
19830;SDS011;10076;52.008;4.708;2023-08-30T04:37:57;41.72;;;38.15;;
19830;SDS011;10076;52.008;4.708;2023-08-30T04:40:23;40.92;;;37.47;;
19830;SDS011;10076;52.008;4.708;2023-08-30T04:42:49;41.10;;;37.58;;
19830;SDS011;10076;52.008;4.708;2023-08-30T04:45:14;41.15;;;37.30;;
19830;SDS011;10076;52.008;4.708;2023-08-30T04:47:40;41.90;;;38.05;;
19830;SDS011;10076;52.008;4.708;2023-08-30T04:50:08;40.58;;;37.05;;
19830;SDS011;10076;52.008;4.708;2023-08-30T04:52:33;39.60;;;35.53;;
19830;SDS011;10076;52.008;4.708;2023-08-30T04:54:59;39.03;;;35.50;;
19830;SDS011;10076;52.008;4.708;2023-08-30T04:57:24;39.13;;;35.53;;
19830;SDS011;10076;52.008;4.708;2023-08-30T04:59:49;39.90;;;36.13;;
19830;SDS011;10076;52.008;4.708;2023-08-30T05:02:15;41.55;;;37.97;;
19830;SDS011;10076;52.008;4.708;2023-08-30T05:04:40;43.58;;;39.83;;
19830;SDS011;10076;52.008;4.708;2023-08-30T05:07:05;41.70;;;38.00;;
19830;SDS011;10076;52.008;4.708;2023-08-30T05:09:31;42.95;;;39.40;;
19830;SDS011;10076;52.008;4.708;2023-08-30T05:11:57;40.08;;;36.65;;
19830;SDS011;10076;52.008;4.708;2023-08-30T05:14:23;40.40;;;36.70;;
19830;SDS011;10076;52.008;4.708;2023-08-30T05:16:49;42.50;;;38.95;;
19830;SDS011;10076;52.008;4.708;2023-08-30T05:19:14;40.38;;;36.97;;
19830;SDS011;10076;52.008;4.708;2023-08-30T05:21:41;41.80;;;38.28;;
19830;SDS011;10076;52.008;4.708;2023-08-30T05:24:07;39.75;;;36.25;;
19830;SDS011;10076;52.008;4.708;2023-08-30T05:26:32;43.10;;;39.42;;
19830;SDS011;10076;52.008;4.708;2023-08-30T05:28:58;38.08;;;34.78;;
19830;SDS011;10076;52.008;4.708;2023-08-30T05:31:23;41.08;;;37.33;;
19830;SDS011;10076;52.008;4.708;2023-08-30T05:33:48;42.00;;;38.53;;
19830;SDS011;10076;52.008;4.708;2023-08-30T05:36:14;42.80;;;39.28;;
19830;SDS011;10076;52.008;4.708;2023-08-30T05:38:39;41.38;;;37.72;;
19830;SDS011;10076;52.008;4.708;2023-08-30T05:41:04;42.25;;;38.35;;
19830;SDS011;10076;52.008;4.708;2023-08-30T05:43:30;41.63;;;37.85;;
19830;SDS011;10076;52.008;4.708;2023-08-30T05:45:56;41.10;;;37.50;;
19830;SDS011;10076;52.008;4.708;2023-08-30T05:48:26;41.60;;;38.00;;
19830;SDS011;10076;52.008;4.708;2023-08-30T05:50:51;41.90;;;37.95;;
19830;SDS011;10076;52.008;4.708;2023-08-30T05:53:17;44.40;;;40.03;;
19830;SDS011;10076;52.008;4.708;2023-08-30T05:55:42;46.40;;;42.13;;
19830;SDS011;10076;52.008;4.708;2023-08-30T05:58:08;49.85;;;44.95;;
19830;SDS011;10076;52.008;4.708;2023-08-30T06:00:33;48.17;;;43.20;;
19830;SDS011;10076;52.008;4.708;2023-08-30T06:02:58;49.63;;;44.72;;
19830;SDS011;10076;52.008;4.708;2023-08-30T06:05:24;50.35;;;45.15;;
19830;SDS011;10076;52.008;4.708;2023-08-30T06:07:49;53.33;;;48.33;;
19830;SDS011;10076;52.008;4.708;2023-08-30T06:10:14;50.38;;;45.03;;
19830;SDS011;10076;52.008;4.708;2023-08-30T06:12:40;52.03;;;46.65;;
19830;SDS011;10076;52.008;4.708;2023-08-30T06:15:05;51.38;;;46.03;;
19830;SDS011;10076;52.008;4.708;2023-08-30T06:17:31;50.35;;;45.35;;
19830;SDS011;10076;52.008;4.708;2023-08-30T06:19:56;53.83;;;48.33;;
19830;SDS011;10076;52.008;4.708;2023-08-30T06:22:22;49.80;;;44.70;;
19830;SDS011;10076;52.008;4.708;2023-08-30T06:24:47;51.42;;;46.08;;
19830;SDS011;10076;52.008;4.708;2023-08-30T06:27:12;53.80;;;48.40;;
19830;SDS011;10076;52.008;4.708;2023-08-30T06:29:38;51.75;;;46.35;;
19830;SDS011;10076;52.008;4.708;2023-08-30T06:32:03;54.70;;;48.97;;
19830;SDS011;10076;52.008;4.708;2023-08-30T06:34:29;55.90;;;50.17;;
19830;SDS011;10076;52.008;4.708;2023-08-30T06:36:55;52.22;;;46.80;;
19830;SDS011;10076;52.008;4.708;2023-08-30T06:39:20;52.38;;;46.97;;
19830;SDS011;10076;52.008;4.708;2023-08-30T06:41:45;53.10;;;47.60;;
19830;SDS011;10076;52.008;4.708;2023-08-30T06:44:11;50.92;;;45.60;;
19830;SDS011;10076;52.008;4.708;2023-08-30T06:46:36;52.22;;;46.90;;
19830;SDS011;10076;52.008;4.708;2023-08-30T06:49:02;51.53;;;46.35;;
19830;SDS011;10076;52.008;4.708;2023-08-30T06:51:28;51.10;;;45.65;;
19830;SDS011;10076;52.008;4.708;2023-08-30T06:53:53;48.38;;;43.25;;
19830;SDS011;10076;52.008;4.708;2023-08-30T06:56:20;48.88;;;43.80;;
19830;SDS011;10076;52.008;4.708;2023-08-30T06:58:45;48.90;;;43.25;;
19830;SDS011;10076;52.008;4.708;2023-08-30T07:01:11;50.95;;;45.60;;
19830;SDS011;10076;52.008;4.708;2023-08-30T07:03:37;46.55;;;41.45;;
19830;SDS011;10076;52.008;4.708;2023-08-30T07:06:02;48.22;;;41.00;;
19830;SDS011;10076;52.008;4.708;2023-08-30T07:08:27;46.90;;;40.03;;
19830;SDS011;10076;52.008;4.708;2023-08-30T07:10:53;47.00;;;39.17;;
19830;SDS011;10076;52.008;4.708;2023-08-30T07:13:18;45.20;;;39.53;;
19830;SDS011;10076;52.008;4.708;2023-08-30T07:15:43;46.90;;;41.55;;
19830;SDS011;10076;52.008;4.708;2023-08-30T07:18:09;46.22;;;40.42;;
19830;SDS011;10076;52.008;4.708;2023-08-30T07:20:35;47.00;;;42.28;;
19830;SDS011;10076;52.008;4.708;2023-08-30T07:23:01;44.78;;;39.92;;
19830;SDS011;10076;52.008;4.708;2023-08-30T07:25:27;44.33;;;39.63;;
19830;SDS011;10076;52.008;4.708;2023-08-30T07:27:54;42.90;;;38.30;;
19830;SDS011;10076;52.008;4.708;2023-08-30T07:30:19;41.40;;;36.88;;
19830;SDS011;10076;52.008;4.708;2023-08-30T07:32:44;42.63;;;38.13;;
19830;SDS011;10076;52.008;4.708;2023-08-30T07:35:10;41.60;;;37.08;;
19830;SDS011;10076;52.008;4.708;2023-08-30T07:37:35;42.13;;;37.80;;
19830;SDS011;10076;52.008;4.708;2023-08-30T07:40:01;44.25;;;39.67;;
19830;SDS011;10076;52.008;4.708;2023-08-30T07:42:29;45.20;;;40.70;;
19830;SDS011;10076;52.008;4.708;2023-08-30T07:44:55;44.28;;;39.65;;
19830;SDS011;10076;52.008;4.708;2023-08-30T07:47:20;47.45;;;42.75;;
19830;SDS011;10076;52.008;4.708;2023-08-30T07:49:45;43.40;;;38.83;;
19830;SDS011;10076;52.008;4.708;2023-08-30T07:52:11;43.90;;;39.30;;
19830;SDS011;10076;52.008;4.708;2023-08-30T07:54:36;43.70;;;39.00;;
19830;SDS011;10076;52.008;4.708;2023-08-30T07:57:03;42.35;;;37.90;;
19830;SDS011;10076;52.008;4.708;2023-08-30T07:59:29;44.10;;;39.53;;
19830;SDS011;10076;52.008;4.708;2023-08-30T08:01:55;46.13;;;41.58;;
19830;SDS011;10076;52.008;4.708;2023-08-30T08:04:20;45.85;;;41.33;;
19830;SDS011;10076;52.008;4.708;2023-08-30T08:06:46;50.13;;;45.42;;
19830;SDS011;10076;52.008;4.708;2023-08-30T08:09:11;41.35;;;37.05;;
19830;SDS011;10076;52.008;4.708;2023-08-30T08:11:37;44.00;;;39.58;;
19830;SDS011;10076;52.008;4.708;2023-08-30T08:14:02;46.15;;;41.55;;
19830;SDS011;10076;52.008;4.708;2023-08-30T08:16:28;43.50;;;38.92;;
19830;SDS011;10076;52.008;4.708;2023-08-30T08:18:53;46.58;;;42.08;;
19830;SDS011;10076;52.008;4.708;2023-08-30T08:21:19;45.67;;;41.00;;
19830;SDS011;10076;52.008;4.708;2023-08-30T08:23:44;45.75;;;41.17;;
19830;SDS011;10076;52.008;4.708;2023-08-30T08:26:09;45.92;;;41.50;;
19830;SDS011;10076;52.008;4.708;2023-08-30T08:28:35;47.53;;;42.72;;
19830;SDS011;10076;52.008;4.708;2023-08-30T08:31:00;46.25;;;41.58;;
19830;SDS011;10076;52.008;4.708;2023-08-30T08:33:26;44.88;;;40.17;;
19830;SDS011;10076;52.008;4.708;2023-08-30T08:35:51;49.72;;;44.53;;
19830;SDS011;10076;52.008;4.708;2023-08-30T08:38:17;48.13;;;43.35;;
19830;SDS011;10076;52.008;4.708;2023-08-30T08:40:42;48.30;;;43.30;;
19830;SDS011;10076;52.008;4.708;2023-08-30T08:43:09;48.13;;;43.30;;
19830;SDS011;10076;52.008;4.708;2023-08-30T08:45:36;47.80;;;42.85;;
19830;SDS011;10076;52.008;4.708;2023-08-30T08:48:04;49.35;;;44.40;;
19830;SDS011;10076;52.008;4.708;2023-08-30T08:50:33;50.35;;;45.25;;
19830;SDS011;10076;52.008;4.708;2023-08-30T08:52:59;46.88;;;41.35;;
19830;SDS011;10076;52.008;4.708;2023-08-30T08:55:26;48.38;;;43.17;;
19830;SDS011;10076;52.008;4.708;2023-08-30T08:57:55;50.35;;;45.25;;
19830;SDS011;10076;52.008;4.708;2023-08-30T09:00:21;47.40;;;42.33;;
19830;SDS011;10076;52.008;4.708;2023-08-30T09:02:47;48.58;;;43.38;;
19830;SDS011;10076;52.008;4.708;2023-08-30T09:05:15;48.92;;;43.63;;
19830;SDS011;10076;52.008;4.708;2023-08-30T09:07:40;53.95;;;48.25;;
19830;SDS011;10076;52.008;4.708;2023-08-30T09:10:07;48.53;;;43.30;;
19830;SDS011;10076;52.008;4.708;2023-08-30T09:12:34;49.63;;;44.45;;
19830;SDS011;10076;52.008;4.708;2023-08-30T09:15:00;49.83;;;44.67;;
19830;SDS011;10076;52.008;4.708;2023-08-30T09:17:35;50.80;;;45.58;;
19830;SDS011;10076;52.008;4.708;2023-08-30T09:20:08;52.25;;;47.05;;
19830;SDS011;10076;52.008;4.708;2023-08-30T09:22:38;55.65;;;50.65;;
19830;SDS011;10076;52.008;4.708;2023-08-30T09:25:03;59.25;;;54.25;;
19830;SDS011;10076;52.008;4.708;2023-08-30T09:27:32;61.38;;;56.40;;
19830;SDS011;10076;52.008;4.708;2023-08-30T09:29:58;61.65;;;56.50;;
19830;SDS011;10076;52.008;4.708;2023-08-30T09:32:24;62.85;;;57.65;;
19830;SDS011;10076;52.008;4.708;2023-08-30T09:34:49;66.35;;;61.13;;
19830;SDS011;10076;52.008;4.708;2023-08-30T09:37:21;63.85;;;58.95;;
19830;SDS011;10076;52.008;4.708;2023-08-30T09:39:50;81.80;;;74.78;;
19830;SDS011;10076;52.008;4.708;2023-08-30T09:42:16;73.35;;;68.07;;
19830;SDS011;10076;52.008;4.708;2023-08-30T09:44:43;71.40;;;66.20;;
19830;SDS011;10076;52.008;4.708;2023-08-30T09:47:08;75.38;;;70.13;;
19830;SDS011;10076;52.008;4.708;2023-08-30T09:49:37;75.38;;;70.07;;
19830;SDS011;10076;52.008;4.708;2023-08-30T09:52:14;71.10;;;66.13;;
19830;SDS011;10076;52.008;4.708;2023-08-30T09:54:41;78.60;;;73.30;;
19830;SDS011;10076;52.008;4.708;2023-08-30T09:57:08;73.38;;;68.28;;
19830;SDS011;10076;52.008;4.708;2023-08-30T09:59:35;74.95;;;69.70;;
19830;SDS011;10076;52.008;4.708;2023-08-30T10:02:01;71.25;;;66.30;;
19830;SDS011;10076;52.008;4.708;2023-08-30T10:04:27;71.25;;;66.30;;
19830;SDS011;10076;52.008;4.708;2023-08-30T10:06:53;65.72;;;61.00;;
19830;SDS011;10076;52.008;4.708;2023-08-30T10:09:22;61.67;;;57.28;;
19830;SDS011;10076;52.008;4.708;2023-08-30T10:11:49;59.15;;;54.60;;
19830;SDS011;10076;52.008;4.708;2023-08-30T10:14:15;56.72;;;52.70;;
19830;SDS011;10076;52.008;4.708;2023-08-30T10:16:45;60.33;;;55.88;;
19830;SDS011;10076;52.008;4.708;2023-08-30T10:21:42;55.22;;;51.13;;
19830;SDS011;10076;52.008;4.708;2023-08-30T10:24:08;51.70;;;47.97;;
19830;SDS011;10076;52.008;4.708;2023-08-30T10:26:37;50.85;;;47.25;;
19830;SDS011;10076;52.008;4.708;2023-08-30T10:29:06;48.80;;;45.28;;
19830;SDS011;10076;52.008;4.708;2023-08-30T10:31:33;54.85;;;51.05;;
19830;SDS011;10076;52.008;4.708;2023-08-30T10:41:55;46.25;;;42.95;;
19830;SDS011;10076;52.008;4.708;2023-08-30T10:44:22;44.55;;;41.13;;
19830;SDS011;10076;52.008;4.708;2023-08-30T10:46:51;46.08;;;42.92;;
19830;SDS011;10076;52.008;4.708;2023-08-30T10:49:18;46.53;;;43.13;;
19830;SDS011;10076;52.008;4.708;2023-08-30T10:51:44;44.97;;;41.78;;
19830;SDS011;10076;52.008;4.708;2023-08-30T10:54:10;42.30;;;39.15;;
19830;SDS011;10076;52.008;4.708;2023-08-30T10:56:47;70.68;;;55.67;;
19830;SDS011;10076;52.008;4.708;2023-08-30T10:59:26;38.72;;;35.60;;
19830;SDS011;10076;52.008;4.708;2023-08-30T11:01:52;37.90;;;34.90;;
19830;SDS011;10076;52.008;4.708;2023-08-30T11:04:21;35.63;;;33.10;;
19830;SDS011;10076;52.008;4.708;2023-08-30T11:06:48;37.00;;;34.30;;
19830;SDS011;10076;52.008;4.708;2023-08-30T11:09:14;32.78;;;30.45;;
19830;SDS011;10076;52.008;4.708;2023-08-30T11:11:43;25.35;;;23.48;;
19830;SDS011;10076;52.008;4.708;2023-08-30T11:14:10;23.13;;;21.38;;
19830;SDS011;10076;52.008;4.708;2023-08-30T11:16:36;20.30;;;18.70;;
19830;SDS011;10076;52.008;4.708;2023-08-30T11:19:02;22.83;;;18.48;;
19830;SDS011;10076;52.008;4.708;2023-08-30T11:21:30;18.75;;;17.30;;
19830;SDS011;10076;52.008;4.708;2023-08-30T11:23:56;18.70;;;17.20;;
19830;SDS011;10076;52.008;4.708;2023-08-30T11:26:21;17.80;;;16.50;;
19830;SDS011;10076;52.008;4.708;2023-08-30T11:28:47;17.73;;;16.38;;
19830;SDS011;10076;52.008;4.708;2023-08-30T11:33:57;17.00;;;15.55;;
19830;SDS011;10076;52.008;4.708;2023-08-30T11:36:27;16.70;;;15.60;;
19830;SDS011;10076;52.008;4.708;2023-08-30T11:38:54;17.23;;;15.93;;
19830;SDS011;10076;52.008;4.708;2023-08-30T11:41:19;17.20;;;15.88;;
19830;SDS011;10076;52.008;4.708;2023-08-30T11:43:49;17.52;;;16.13;;
19830;SDS011;10076;52.008;4.708;2023-08-30T11:46:15;17.50;;;16.15;;
19830;SDS011;10076;52.008;4.708;2023-08-30T11:48:41;18.70;;;16.92;;
19830;SDS011;10076;52.008;4.708;2023-08-30T11:51:08;17.95;;;16.55;;
19830;SDS011;10076;52.008;4.708;2023-08-30T11:53:34;18.20;;;16.85;;
19830;SDS011;10076;52.008;4.708;2023-08-30T11:56:00;17.02;;;15.57;;
19830;SDS011;10076;52.008;4.708;2023-08-30T11:58:26;17.80;;;16.17;;
19830;SDS011;10076;52.008;4.708;2023-08-30T12:00:52;17.45;;;16.10;;
19830;SDS011;10076;52.008;4.708;2023-08-30T12:03:19;17.80;;;16.17;;
19830;SDS011;10076;52.008;4.708;2023-08-30T12:05:45;17.60;;;16.15;;
19830;SDS011;10076;52.008;4.708;2023-08-30T12:08:25;18.73;;;16.90;;
19830;SDS011;10076;52.008;4.708;2023-08-30T12:10:52;18.95;;;17.10;;
19830;SDS011;10076;52.008;4.708;2023-08-30T12:15:46;17.73;;;16.42;;
19830;SDS011;10076;52.008;4.708;2023-08-30T12:18:12;17.77;;;16.48;;
19830;SDS011;10076;52.008;4.708;2023-08-30T12:20:37;18.02;;;16.63;;
19830;SDS011;10076;52.008;4.708;2023-08-30T12:23:02;18.00;;;16.45;;
19830;SDS011;10076;52.008;4.708;2023-08-30T12:25:28;18.02;;;16.58;;
19830;SDS011;10076;52.008;4.708;2023-08-30T12:27:55;17.85;;;16.30;;
19830;SDS011;10076;52.008;4.708;2023-08-30T12:30:21;17.52;;;16.23;;
19830;SDS011;10076;52.008;4.708;2023-08-30T12:32:46;19.60;;;18.20;;
19830;SDS011;10076;52.008;4.708;2023-08-30T12:35:13;24.95;;;23.08;;
19830;SDS011;10076;52.008;4.708;2023-08-30T12:37:39;28.08;;;25.92;;
19830;SDS011;10076;52.008;4.708;2023-08-30T12:40:04;29.20;;;26.95;;
19830;SDS011;10076;52.008;4.708;2023-08-30T12:42:31;28.95;;;26.65;;
19830;SDS011;10076;52.008;4.708;2023-08-30T12:44:56;33.35;;;30.75;;
19830;SDS011;10076;52.008;4.708;2023-08-30T12:47:22;36.00;;;33.00;;
19830;SDS011;10076;52.008;4.708;2023-08-30T12:49:47;34.25;;;31.50;;
19830;SDS011;10076;52.008;4.708;2023-08-30T12:52:12;34.25;;;31.65;;
19830;SDS011;10076;52.008;4.708;2023-08-30T12:54:38;34.03;;;31.27;;
19830;SDS011;10076;52.008;4.708;2023-08-30T12:57:03;32.38;;;29.85;;
19830;SDS011;10076;52.008;4.708;2023-08-30T12:59:29;36.03;;;33.22;;
19830;SDS011;10076;52.008;4.708;2023-08-30T13:01:54;39.95;;;36.88;;
19830;SDS011;10076;52.008;4.708;2023-08-30T13:04:19;37.53;;;34.78;;
19830;SDS011;10076;52.008;4.708;2023-08-30T13:06:45;35.30;;;32.33;;
19830;SDS011;10076;52.008;4.708;2023-08-30T13:09:10;33.72;;;31.08;;
19830;SDS011;10076;52.008;4.708;2023-08-30T13:11:35;35.72;;;33.15;;
19830;SDS011;10076;52.008;4.708;2023-08-30T13:14:01;37.80;;;34.95;;
19830;SDS011;10076;52.008;4.708;2023-08-30T13:16:26;44.00;;;40.80;;
19830;SDS011;10076;52.008;4.708;2023-08-30T13:18:52;45.80;;;42.40;;
19830;SDS011;10076;52.008;4.708;2023-08-30T13:21:17;46.72;;;42.88;;
19830;SDS011;10076;52.008;4.708;2023-08-30T13:23:42;43.55;;;40.05;;
19830;SDS011;10076;52.008;4.708;2023-08-30T13:26:08;43.65;;;40.20;;
19830;SDS011;10076;52.008;4.708;2023-08-30T13:28:33;43.72;;;40.15;;
19830;SDS011;10076;52.008;4.708;2023-08-30T13:30:59;40.75;;;37.85;;
19830;SDS011;10076;52.008;4.708;2023-08-30T13:33:25;38.00;;;35.17;;
19830;SDS011;10076;52.008;4.708;2023-08-30T13:35:50;37.63;;;35.00;;
19830;SDS011;10076;52.008;4.708;2023-08-30T13:38:16;37.08;;;34.17;;
19830;SDS011;10076;52.008;4.708;2023-08-30T13:40:42;36.92;;;34.22;;
19830;SDS011;10076;52.008;4.708;2023-08-30T13:43:07;35.38;;;32.78;;
19830;SDS011;10076;52.008;4.708;2023-08-30T13:45:33;35.13;;;32.63;;
19830;SDS011;10076;52.008;4.708;2023-08-30T13:47:58;35.28;;;32.70;;
19830;SDS011;10076;52.008;4.708;2023-08-30T13:50:24;32.47;;;29.88;;
19830;SDS011;10076;52.008;4.708;2023-08-30T13:52:51;38.95;;;35.70;;
19830;SDS011;10076;52.008;4.708;2023-08-30T13:55:17;49.30;;;45.30;;
19830;SDS011;10076;52.008;4.708;2023-08-30T13:57:42;51.88;;;47.53;;
19830;SDS011;10076;52.008;4.708;2023-08-30T14:00:08;53.83;;;49.28;;
19830;SDS011;10076;52.008;4.708;2023-08-30T14:02:35;57.35;;;52.80;;
19830;SDS011;10076;52.008;4.708;2023-08-30T14:05:00;60.15;;;55.50;;
19830;SDS011;10076;52.008;4.708;2023-08-30T14:07:27;62.80;;;58.13;;
19830;SDS011;10076;52.008;4.708;2023-08-30T14:09:52;65.22;;;60.50;;
19830;SDS011;10076;52.008;4.708;2023-08-30T14:12:18;61.80;;;57.10;;
19830;SDS011;10076;52.008;4.708;2023-08-30T14:14:43;62.63;;;57.92;;
19830;SDS011;10076;52.008;4.708;2023-08-30T14:17:09;66.57;;;61.47;;
19830;SDS011;10076;52.008;4.708;2023-08-30T14:19:34;64.03;;;59.15;;
19830;SDS011;10076;52.008;4.708;2023-08-30T14:22:00;67.60;;;62.78;;
19830;SDS011;10076;52.008;4.708;2023-08-30T14:24:27;68.05;;;62.95;;
19830;SDS011;10076;52.008;4.708;2023-08-30T14:26:53;89.75;;;80.07;;
19830;SDS011;10076;52.008;4.708;2023-08-30T14:29:19;65.68;;;60.80;;
19830;SDS011;10076;52.008;4.708;2023-08-30T14:31:48;67.97;;;62.97;;
19830;SDS011;10076;52.008;4.708;2023-08-30T14:34:14;64.20;;;59.30;;
19830;SDS011;10076;52.008;4.708;2023-08-30T14:36:40;71.22;;;66.07;;
19830;SDS011;10076;52.008;4.708;2023-08-30T14:39:07;61.75;;;57.13;;